Terminal Aerodrome Forecast
Issued by NWS

Home | Current Version | Previous Version | Graphics & Text | Print | Product List | Glossary On
Versions: 1 2 3 4 5 6 7 8 9 10 11 12 13 14 15 16 17 18 19 20 21 22 23 24 25
000
FTUS43 KGRB 190918 AAA
TAFATW
TAF AMD
KATW 190918Z 1909/2006 23006KT 2SM BR OVC004
     FM191500 20005KT 5SM BR BKN006
     FM191900 19007KT 6SM BR SCT012
     FM200300 15003KT 3SM BR OVC012=

USA.gov is the U.S. government's official web portal to all federal, state and local government web resources and services.